Trebic, Czech Republic
Current Conditions -  °F | °C
As of 7:00 PM on Monday 22 Dec 2014 (Local Time) from LKNA Reporting Station
Broken Clouds Broken Clouds  
Wind Chill: 37°   Ceiling: 2600
Heat Index: 45°   Visibility: 6mi
Dew Point: 41°   Wind: 16mph
Humidity: 87%   Direction: 270°W
Pressure: 30"   Gusts: 28mph
Location:  49.22°N, 15.87°E
Report Text: LKNA 221700Z 27014G24KT 9999 BKN026 07/05 Q1016 NOSIG
Loading
Personal Weather Stations






























Interactive Weather Map New forecast layout! Learn more

10-Day Weather Forecast

Advertisements
Track Severe Weather on mobile